sensor_id;sensor_type;location;lat;lon;timestamp;pressure;altitude;pressure_sealevel;temperature;humidity
74921;BME280;63483;47.384;8.860;2023-12-20T00:01:03;94843.25;;;0.77;48.48
74921;BME280;63483;47.384;8.860;2023-12-20T00:03:28;94836.34;;;0.78;47.71
74921;BME280;63483;47.384;8.860;2023-12-20T00:05:54;94836.00;;;0.82;48.19
74921;BME280;63483;47.384;8.860;2023-12-20T00:08:20;94848.78;;;0.84;47.74
74921;BME280;63483;47.384;8.860;2023-12-20T00:10:45;94841.84;;;0.84;48.01
74921;BME280;63483;47.384;8.860;2023-12-20T00:13:11;94835.88;;;0.84;47.84
74921;BME280;63483;47.384;8.860;2023-12-20T00:15:36;94827.09;;;0.86;47.27
74921;BME280;63483;47.384;8.860;2023-12-20T00:18:01;94825.44;;;0.85;47.18
74921;BME280;63483;47.384;8.860;2023-12-20T00:20:28;94824.16;;;0.91;47.25
74921;BME280;63483;47.384;8.860;2023-12-20T00:22:57;94836.13;;;0.92;47.61
74921;BME280;63483;47.384;8.860;2023-12-20T00:25:23;94838.09;;;0.77;47.07
74921;BME280;63483;47.384;8.860;2023-12-20T00:27:48;94849.16;;;0.90;45.60
74921;BME280;63483;47.384;8.860;2023-12-20T00:30:14;94856.84;;;0.79;46.93
74921;BME280;63483;47.384;8.860;2023-12-20T00:32:39;94848.38;;;0.66;47.27
74921;BME280;63483;47.384;8.860;2023-12-20T00:35:06;94839.84;;;0.77;47.76
74921;BME280;63483;47.384;8.860;2023-12-20T00:37:32;94834.13;;;0.84;47.14
74921;BME280;63483;47.384;8.860;2023-12-20T00:39:57;94821.72;;;0.89;47.10
74921;BME280;63483;47.384;8.860;2023-12-20T00:42:22;94823.94;;;0.94;47.23
74921;BME280;63483;47.384;8.860;2023-12-20T00:44:48;94806.34;;;0.99;47.56
74921;BME280;63483;47.384;8.860;2023-12-20T00:47:13;94790.63;;;1.02;47.41
74921;BME280;63483;47.384;8.860;2023-12-20T00:49:38;94786.31;;;1.03;47.28
74921;BME280;63483;47.384;8.860;2023-12-20T00:52:04;94789.56;;;1.05;46.90
74921;BME280;63483;47.384;8.860;2023-12-20T00:54:29;94786.06;;;1.06;46.68
74921;BME280;63483;47.384;8.860;2023-12-20T00:56:55;94775.50;;;1.09;47.06
74921;BME280;63483;47.384;8.860;2023-12-20T00:59:21;94762.50;;;1.11;46.49
74921;BME280;63483;47.384;8.860;2023-12-20T01:01:46;94773.38;;;1.14;46.19
74921;BME280;63483;47.384;8.860;2023-12-20T01:04:11;94778.47;;;1.16;45.79
74921;BME280;63483;47.384;8.860;2023-12-20T01:06:37;94789.13;;;0.30;45.23
74921;BME280;63483;47.384;8.860;2023-12-20T01:09:02;94790.94;;;-0.43;41.67
74921;BME280;63483;47.384;8.860;2023-12-20T01:11:28;94795.28;;;-0.93;42.72
74921;BME280;63483;47.384;8.860;2023-12-20T01:13:53;94808.75;;;-1.41;44.07
74921;BME280;63483;47.384;8.860;2023-12-20T01:16:18;94802.16;;;-1.58;45.05
74921;BME280;63483;47.384;8.860;2023-12-20T01:18:43;94796.41;;;-1.62;45.48
74921;BME280;63483;47.384;8.860;2023-12-20T01:21:09;94784.28;;;-1.60;46.86
74921;BME280;63483;47.384;8.860;2023-12-20T01:23:34;94773.28;;;-1.10;51.57
74921;BME280;63483;47.384;8.860;2023-12-20T01:25:59;94767.00;;;-1.32;48.94
74921;BME280;63483;47.384;8.860;2023-12-20T01:28:25;94774.75;;;-1.45;47.83
74921;BME280;63483;47.384;8.860;2023-12-20T01:30:51;94777.09;;;-1.55;46.34
74921;BME280;63483;47.384;8.860;2023-12-20T01:33:16;94777.72;;;-1.64;46.51
74921;BME280;63483;47.384;8.860;2023-12-20T01:35:41;94787.94;;;-1.90;45.82
74921;BME280;63483;47.384;8.860;2023-12-20T01:38:07;94798.28;;;-2.04;46.50
74921;BME280;63483;47.384;8.860;2023-12-20T01:40:32;94797.66;;;-2.35;46.55
74921;BME280;63483;47.384;8.860;2023-12-20T01:43:07;94795.81;;;-2.60;46.20
74921;BME280;63483;47.384;8.860;2023-12-20T01:45:34;94799.97;;;-2.72;46.62
74921;BME280;63483;47.384;8.860;2023-12-20T01:47:59;94797.31;;;-2.85;47.26
74921;BME280;63483;47.384;8.860;2023-12-20T01:50:25;94804.19;;;-2.85;47.12
74921;BME280;63483;47.384;8.860;2023-12-20T01:52:51;94798.69;;;-2.79;48.31
74921;BME280;63483;47.384;8.860;2023-12-20T01:55:20;94801.44;;;-2.68;49.37
74921;BME280;63483;47.384;8.860;2023-12-20T01:57:46;94797.44;;;-2.59;49.04
74921;BME280;63483;47.384;8.860;2023-12-20T02:00:13;94801.72;;;-2.45;47.98
74921;BME280;63483;47.384;8.860;2023-12-20T02:02:40;94792.75;;;-2.25;48.30
74921;BME280;63483;47.384;8.860;2023-12-20T02:05:06;94793.41;;;-2.21;48.27
74921;BME280;63483;47.384;8.860;2023-12-20T02:07:31;94777.41;;;-2.12;47.12
74921;BME280;63483;47.384;8.860;2023-12-20T02:09:57;94773.63;;;-2.07;46.24
74921;BME280;63483;47.384;8.860;2023-12-20T02:12:22;94769.84;;;-2.01;46.66
74921;BME280;63483;47.384;8.860;2023-12-20T02:14:48;94766.47;;;-1.88;46.92
74921;BME280;63483;47.384;8.860;2023-12-20T02:17:15;94774.81;;;-1.72;45.61
74921;BME280;63483;47.384;8.860;2023-12-20T02:19:40;94772.97;;;-1.44;49.11
74921;BME280;63483;47.384;8.860;2023-12-20T02:22:10;94781.00;;;-0.97;49.70
74921;BME280;63483;47.384;8.860;2023-12-20T02:24:35;94784.81;;;-0.53;48.67
74921;BME280;63483;47.384;8.860;2023-12-20T02:27:01;94786.13;;;-0.23;48.89
74921;BME280;63483;47.384;8.860;2023-12-20T02:29:27;94790.34;;;0.02;48.00
74921;BME280;63483;47.384;8.860;2023-12-20T02:31:52;94789.50;;;0.01;48.18
74921;BME280;63483;47.384;8.860;2023-12-20T02:34:17;94782.09;;;0.32;47.79
74921;BME280;63483;47.384;8.860;2023-12-20T02:36:43;94791.38;;;0.35;47.81
74921;BME280;63483;47.384;8.860;2023-12-20T02:39:08;94784.28;;;0.61;47.40
74921;BME280;63483;47.384;8.860;2023-12-20T02:41:33;94780.09;;;0.71;46.47
74921;BME280;63483;47.384;8.860;2023-12-20T02:43:59;94780.44;;;0.89;46.50
74921;BME280;63483;47.384;8.860;2023-12-20T02:46:24;94779.97;;;0.96;46.84
74921;BME280;63483;47.384;8.860;2023-12-20T02:48:49;94775.75;;;1.06;46.83
74921;BME280;63483;47.384;8.860;2023-12-20T02:51:15;94781.03;;;1.16;46.90
74921;BME280;63483;47.384;8.860;2023-12-20T02:53:40;94783.72;;;1.25;46.41
74921;BME280;63483;47.384;8.860;2023-12-20T02:56:05;94780.66;;;1.32;46.67
74921;BME280;63483;47.384;8.860;2023-12-20T02:58:31;94780.66;;;1.32;46.63
74921;BME280;63483;47.384;8.860;2023-12-20T03:00:56;94779.34;;;1.37;46.39
74921;BME280;63483;47.384;8.860;2023-12-20T03:03:21;94791.91;;;1.42;46.59
74921;BME280;63483;47.384;8.860;2023-12-20T03:05:46;94803.75;;;1.33;48.25
74921;BME280;63483;47.384;8.860;2023-12-20T03:08:12;94798.72;;;1.32;48.93
74921;BME280;63483;47.384;8.860;2023-12-20T03:10:37;94810.59;;;1.46;48.59
74921;BME280;63483;47.384;8.860;2023-12-20T03:13:02;94800.59;;;1.52;48.48
74921;BME280;63483;47.384;8.860;2023-12-20T03:15:28;94813.25;;;1.55;48.86
74921;BME280;63483;47.384;8.860;2023-12-20T03:17:53;94811.41;;;1.57;49.02
74921;BME280;63483;47.384;8.860;2023-12-20T03:20:18;94818.19;;;1.58;49.72
74921;BME280;63483;47.384;8.860;2023-12-20T03:22:43;94823.34;;;1.58;49.08
74921;BME280;63483;47.384;8.860;2023-12-20T03:25:09;94826.66;;;1.60;49.47
74921;BME280;63483;47.384;8.860;2023-12-20T03:27:37;94827.34;;;1.63;49.56
74921;BME280;63483;47.384;8.860;2023-12-20T03:30:02;94834.16;;;1.64;50.53
74921;BME280;63483;47.384;8.860;2023-12-20T03:32:28;94832.38;;;1.64;50.22
74921;BME280;63483;47.384;8.860;2023-12-20T03:34:53;94839.91;;;1.56;50.72
74921;BME280;63483;47.384;8.860;2023-12-20T03:37:18;94835.81;;;1.53;51.06
74921;BME280;63483;47.384;8.860;2023-12-20T03:39:44;94829.00;;;1.52;51.62
74921;BME280;63483;47.384;8.860;2023-12-20T03:42:09;94829.84;;;1.53;51.49
74921;BME280;63483;47.384;8.860;2023-12-20T03:44:34;94815.16;;;1.53;52.47
74921;BME280;63483;47.384;8.860;2023-12-20T03:46:59;94815.41;;;1.50;52.26
74921;BME280;63483;47.384;8.860;2023-12-20T03:49:25;94811.28;;;1.48;52.59
74921;BME280;63483;47.384;8.860;2023-12-20T03:51:50;94806.72;;;1.51;52.44
74921;BME280;63483;47.384;8.860;2023-12-20T03:54:16;94804.81;;;1.53;52.27
74921;BME280;63483;47.384;8.860;2023-12-20T03:56:41;94805.56;;;1.44;52.46
74921;BME280;63483;47.384;8.860;2023-12-20T03:59:06;94814.69;;;1.48;53.07
74921;BME280;63483;47.384;8.860;2023-12-20T04:01:32;94805.56;;;1.44;52.97
74921;BME280;63483;47.384;8.860;2023-12-20T04:03:57;94802.00;;;1.45;53.25
74921;BME280;63483;47.384;8.860;2023-12-20T04:06:22;94807.06;;;1.47;53.33
74921;BME280;63483;47.384;8.860;2023-12-20T04:08:47;94806.25;;;1.46;53.08
74921;BME280;63483;47.384;8.860;2023-12-20T04:11:13;94814.69;;;1.48;53.31
74921;BME280;63483;47.384;8.860;2023-12-20T04:13:38;94823.00;;;1.52;53.81
74921;BME280;63483;47.384;8.860;2023-12-20T04:16:03;94821.13;;;1.54;53.89
74921;BME280;63483;47.384;8.860;2023-12-20T04:18:29;94825.25;;;1.56;53.93
74921;BME280;63483;47.384;8.860;2023-12-20T04:20:54;94819.13;;;1.57;53.91
74921;BME280;63483;47.384;8.860;2023-12-20T04:23:19;94831.81;;;1.60;54.05
74921;BME280;63483;47.384;8.860;2023-12-20T04:25:45;94821.25;;;1.64;54.13
74921;BME280;63483;47.384;8.860;2023-12-20T04:28:10;94826.16;;;1.67;53.20
74921;BME280;63483;47.384;8.860;2023-12-20T04:30:35;94831.31;;;1.67;54.07
74921;BME280;63483;47.384;8.860;2023-12-20T04:33:00;94826.16;;;1.67;54.69
74921;BME280;63483;47.384;8.860;2023-12-20T04:35:26;94840.84;;;1.66;54.39
74921;BME280;63483;47.384;8.860;2023-12-20T04:37:51;94846.00;;;1.66;54.74
74921;BME280;63483;47.384;8.860;2023-12-20T04:40:16;94854.19;;;1.71;54.90
74921;BME280;63483;47.384;8.860;2023-12-20T04:42:42;94850.81;;;1.71;54.89
74921;BME280;63483;47.384;8.860;2023-12-20T04:45:07;94857.59;;;1.72;55.62
74921;BME280;63483;47.384;8.860;2023-12-20T04:47:33;94852.09;;;1.76;55.26
74921;BME280;63483;47.384;8.860;2023-12-20T04:49:58;94859.47;;;1.81;55.11
74921;BME280;63483;47.384;8.860;2023-12-20T04:52:23;94865.44;;;1.82;55.05
74921;BME280;63483;47.384;8.860;2023-12-20T04:54:49;94869.56;;;1.84;55.03
74921;BME280;63483;47.384;8.860;2023-12-20T04:57:14;94872.16;;;1.84;55.11
74921;BME280;63483;47.384;8.860;2023-12-20T04:59:39;94874.38;;;1.32;54.49
74921;BME280;63483;47.384;8.860;2023-12-20T05:02:06;94886.22;;;0.65;51.09
74921;BME280;63483;47.384;8.860;2023-12-20T05:04:31;94878.88;;;0.36;52.90
74921;BME280;63483;47.384;8.860;2023-12-20T05:06:56;94883.63;;;0.06;53.62
74921;BME280;63483;47.384;8.860;2023-12-20T05:09:22;94879.19;;;-0.17;51.48
74921;BME280;63483;47.384;8.860;2023-12-20T05:11:47;94884.25;;;0.09;58.58
74921;BME280;63483;47.384;8.860;2023-12-20T05:14:12;94893.81;;;-0.17;57.79
74921;BME280;63483;47.384;8.860;2023-12-20T05:16:37;94898.19;;;-0.43;55.63
74921;BME280;63483;47.384;8.860;2023-12-20T05:19:03;94894.94;;;-0.71;54.64
74921;BME280;63483;47.384;8.860;2023-12-20T05:21:31;94888.47;;;-0.77;55.84
74921;BME280;63483;47.384;8.860;2023-12-20T05:23:57;94904.41;;;-0.85;56.21
74921;BME280;63483;47.384;8.860;2023-12-20T05:26:22;94901.66;;;-0.94;54.86
74921;BME280;63483;47.384;8.860;2023-12-20T05:28:47;94895.78;;;-0.83;54.99
74921;BME280;63483;47.384;8.860;2023-12-20T05:31:12;94907.59;;;-0.94;54.81
74921;BME280;63483;47.384;8.860;2023-12-20T05:33:38;94888.97;;;-0.85;56.64
74921;BME280;63483;47.384;8.860;2023-12-20T05:36:03;94888.56;;;-0.78;54.98
74921;BME280;63483;47.384;8.860;2023-12-20T05:38:29;94889.19;;;-0.75;54.91
74921;BME280;63483;47.384;8.860;2023-12-20T05:40:54;94894.72;;;-0.68;54.97
74921;BME280;63483;47.384;8.860;2023-12-20T05:43:19;94902.13;;;-0.51;56.24
74921;BME280;63483;47.384;8.860;2023-12-20T05:45:45;94899.44;;;-0.36;56.05
74921;BME280;63483;47.384;8.860;2023-12-20T05:48:10;94900.63;;;-0.16;55.49
74921;BME280;63483;47.384;8.860;2023-12-20T05:50:35;94897.78;;;-0.00;56.03
74921;BME280;63483;47.384;8.860;2023-12-20T05:53:02;94897.16;;;0.09;54.30
74921;BME280;63483;47.384;8.860;2023-12-20T05:55:27;94900.97;;;0.28;55.70
74921;BME280;63483;47.384;8.860;2023-12-20T05:57:52;94899.75;;;0.20;56.49
74921;BME280;63483;47.384;8.860;2023-12-20T06:00:18;94912.09;;;0.52;57.37
74921;BME280;63483;47.384;8.860;2023-12-20T06:02:43;94904.59;;;0.61;59.03
74921;BME280;63483;47.384;8.860;2023-12-20T06:05:08;94910.72;;;0.71;59.38
74921;BME280;63483;47.384;8.860;2023-12-20T06:07:34;94921.13;;;0.94;58.09
74921;BME280;63483;47.384;8.860;2023-12-20T06:09:59;94905.88;;;1.02;58.28
74921;BME280;63483;47.384;8.860;2023-12-20T06:12:24;94903.47;;;1.12;58.37
74921;BME280;63483;47.384;8.860;2023-12-20T06:14:52;94902.19;;;1.17;58.21
74921;BME280;63483;47.384;8.860;2023-12-20T06:17:17;94901.00;;;1.33;58.24
74921;BME280;63483;47.384;8.860;2023-12-20T06:19:42;94916.25;;;1.24;58.66
74921;BME280;63483;47.384;8.860;2023-12-20T06:22:10;94922.34;;;1.35;58.68
74921;BME280;63483;47.384;8.860;2023-12-20T06:24:36;94914.72;;;1.33;58.86
74921;BME280;63483;47.384;8.860;2023-12-20T06:27:01;94913.97;;;1.44;58.68
74921;BME280;63483;47.384;8.860;2023-12-20T06:29:26;94916.88;;;1.51;58.16
74921;BME280;63483;47.384;8.860;2023-12-20T06:31:51;94911.25;;;1.57;57.82
74921;BME280;63483;47.384;8.860;2023-12-20T06:34:17;94906.69;;;1.49;58.28
74921;BME280;63483;47.384;8.860;2023-12-20T06:36:42;94917.94;;;1.59;58.34
74921;BME280;63483;47.384;8.860;2023-12-20T06:39:08;94917.47;;;1.66;57.54
74921;BME280;63483;47.384;8.860;2023-12-20T06:41:34;94915.59;;;1.68;58.38
74921;BME280;63483;47.384;8.860;2023-12-20T06:43:59;94905.03;;;1.71;57.68
74921;BME280;63483;47.384;8.860;2023-12-20T06:46:24;94915.13;;;1.74;57.57
74921;BME280;63483;47.384;8.860;2023-12-20T06:48:50;94913.00;;;1.79;57.46
74921;BME280;63483;47.384;8.860;2023-12-20T06:51:16;94914.53;;;1.82;57.75
74921;BME280;63483;47.384;8.860;2023-12-20T06:53:42;94927.56;;;1.91;57.46
74921;BME280;63483;47.384;8.860;2023-12-20T06:56:07;94922.97;;;1.95;57.54
74921;BME280;63483;47.384;8.860;2023-12-20T06:58:33;94925.66;;;1.93;57.35
74921;BME280;63483;47.384;8.860;2023-12-20T07:00:59;94933.19;;;1.96;57.27
74921;BME280;63483;47.384;8.860;2023-12-20T07:03:24;94942.34;;;1.89;57.08
74921;BME280;63483;47.384;8.860;2023-12-20T07:05:49;94941.69;;;1.18;51.72
74921;BME280;63483;47.384;8.860;2023-12-20T07:08:15;94938.47;;;0.91;52.61
74921;BME280;63483;47.384;8.860;2023-12-20T07:10:41;94936.41;;;0.72;50.80
74921;BME280;63483;47.384;8.860;2023-12-20T07:13:06;94938.09;;;0.49;48.93
74921;BME280;63483;47.384;8.860;2023-12-20T07:15:33;94934.66;;;0.49;50.18
74921;BME280;63483;47.384;8.860;2023-12-20T07:17:58;94936.38;;;0.37;50.21
74921;BME280;63483;47.384;8.860;2023-12-20T07:20:25;94934.41;;;0.41;50.61
74921;BME280;63483;47.384;8.860;2023-12-20T07:22:51;94940.22;;;0.55;56.22
74921;BME280;63483;47.384;8.860;2023-12-20T07:25:16;94939.81;;;0.73;57.98
74921;BME280;63483;47.384;8.860;2023-12-20T07:27:41;94948.22;;;0.15;60.30
74921;BME280;63483;47.384;8.860;2023-12-20T07:30:07;94947.13;;;-0.06;57.13
74921;BME280;63483;47.384;8.860;2023-12-20T07:32:32;94954.50;;;-0.26;56.16
74921;BME280;63483;47.384;8.860;2023-12-20T07:34:58;94959.97;;;-0.43;56.80
74921;BME280;63483;47.384;8.860;2023-12-20T07:37:23;94960.06;;;-0.58;55.89
74921;BME280;63483;47.384;8.860;2023-12-20T07:39:48;94964.91;;;-0.66;55.17
74921;BME280;63483;47.384;8.860;2023-12-20T07:42:13;94963.28;;;-0.67;56.64
74921;BME280;63483;47.384;8.860;2023-12-20T07:44:39;94961.81;;;-0.71;55.01
74921;BME280;63483;47.384;8.860;2023-12-20T07:47:04;94954.72;;;-0.55;55.62
74921;BME280;63483;47.384;8.860;2023-12-20T07:49:33;94958.31;;;-0.44;56.10
74921;BME280;63483;47.384;8.860;2023-12-20T07:51:58;94962.66;;;-0.45;55.99
74921;BME280;63483;47.384;8.860;2023-12-20T07:54:23;94963.06;;;-0.51;55.19
74921;BME280;63483;47.384;8.860;2023-12-20T07:56:49;94978.91;;;-0.32;54.91
74921;BME280;63483;47.384;8.860;2023-12-20T07:59:14;94976.00;;;-0.27;54.39
74921;BME280;63483;47.384;8.860;2023-12-20T08:01:40;94980.25;;;-0.26;54.16
74921;BME280;63483;47.384;8.860;2023-12-20T08:04:05;94980.34;;;-0.15;52.25
74921;BME280;63483;47.384;8.860;2023-12-20T08:06:30;94980.41;;;-0.03;54.36
74921;BME280;63483;47.384;8.860;2023-12-20T08:08:56;94983.75;;;0.10;53.10
74921;BME280;63483;47.384;8.860;2023-12-20T08:11:21;94980.13;;;0.26;56.95
74921;BME280;63483;47.384;8.860;2023-12-20T08:13:46;94984.25;;;0.52;56.99
74921;BME280;63483;47.384;8.860;2023-12-20T08:16:12;94985.50;;;0.71;58.58
74921;BME280;63483;47.384;8.860;2023-12-20T08:18:39;94987.63;;;0.77;58.76
74921;BME280;63483;47.384;8.860;2023-12-20T08:21:04;94982.81;;;0.97;58.69
74921;BME280;63483;47.384;8.860;2023-12-20T08:23:32;94984.91;;;0.43;59.73
74921;BME280;63483;47.384;8.860;2023-12-20T08:25:58;94985.06;;;-0.08;57.65
74921;BME280;63483;47.384;8.860;2023-12-20T08:28:23;94992.41;;;-0.28;56.42
74921;BME280;63483;47.384;8.860;2023-12-20T08:30:48;94990.44;;;-0.63;55.22
74921;BME280;63483;47.384;8.860;2023-12-20T08:33:15;94993.72;;;-0.87;54.92
74921;BME280;63483;47.384;8.860;2023-12-20T08:35:40;94996.50;;;-0.90;55.75
74921;BME280;63483;47.384;8.860;2023-12-20T08:38:06;95001.44;;;-0.87;58.32
74921;BME280;63483;47.384;8.860;2023-12-20T08:40:31;95001.13;;;-0.82;57.32
74921;BME280;63483;47.384;8.860;2023-12-20T08:42:57;95000.03;;;-0.65;57.71
74921;BME280;63483;47.384;8.860;2023-12-20T08:45:22;94998.88;;;-0.61;57.03
74921;BME280;63483;47.384;8.860;2023-12-20T08:47:47;94991.25;;;-0.50;56.37
74921;BME280;63483;47.384;8.860;2023-12-20T08:50:12;94995.56;;;-0.37;57.76
74921;BME280;63483;47.384;8.860;2023-12-20T08:52:38;94992.47;;;-0.17;57.09
74921;BME280;63483;47.384;8.860;2023-12-20T08:55:04;94998.94;;;0.02;55.92
74921;BME280;63483;47.384;8.860;2023-12-20T08:57:29;94999.84;;;0.14;55.45
74921;BME280;63483;47.384;8.860;2023-12-20T08:59:59;94979.81;;;0.30;57.42
74921;BME280;63483;47.384;8.860;2023-12-20T09:02:24;94983.97;;;0.44;54.60
74921;BME280;63483;47.384;8.860;2023-12-20T09:04:49;94975.50;;;0.55;55.12
74921;BME280;63483;47.384;8.860;2023-12-20T09:07:28;94981.78;;;0.75;56.79
74921;BME280;63483;47.384;8.860;2023-12-20T09:09:55;94982.53;;;0.88;57.64
74921;BME280;63483;47.384;8.860;2023-12-20T09:12:21;94980.13;;;0.98;58.63
74921;BME280;63483;47.384;8.860;2023-12-20T09:14:48;94983.31;;;1.13;58.76
74921;BME280;63483;47.384;8.860;2023-12-20T09:17:15;94987.59;;;1.37;58.28
74921;BME280;63483;47.384;8.860;2023-12-20T09:19:41;94988.69;;;1.46;59.31
74921;BME280;63483;47.384;8.860;2023-12-20T09:22:06;94991.16;;;1.58;59.22
74921;BME280;63483;47.384;8.860;2023-12-20T09:24:32;94992.59;;;1.74;58.91
74921;BME280;63483;47.384;8.860;2023-12-20T09:26:57;94990.25;;;1.82;59.00
74921;BME280;63483;47.384;8.860;2023-12-20T09:29:23;94982.25;;;1.85;59.84
74921;BME280;63483;47.384;8.860;2023-12-20T09:31:49;94976.84;;;2.00;59.16
74921;BME280;63483;47.384;8.860;2023-12-20T09:34:15;94980.84;;;2.04;59.05
74921;BME280;63483;47.384;8.860;2023-12-20T09:36:42;94986.38;;;2.10;58.82
74921;BME280;63483;47.384;8.860;2023-12-20T09:39:13;94977.06;;;2.19;58.40
74921;BME280;63483;47.384;8.860;2023-12-20T09:41:43;94981.78;;;2.25;58.29
74921;BME280;63483;47.384;8.860;2023-12-20T09:44:16;94984.94;;;2.18;58.10
74921;BME280;63483;47.384;8.860;2023-12-20T09:46:45;94987.88;;;2.24;58.14
74921;BME280;63483;47.384;8.860;2023-12-20T09:49:16;94990.91;;;2.29;57.94
74921;BME280;63483;47.384;8.860;2023-12-20T09:51:42;94991.50;;;2.33;57.75
74921;BME280;63483;47.384;8.860;2023-12-20T09:54:08;94991.63;;;2.31;57.79
74921;BME280;63483;47.384;8.860;2023-12-20T09:56:35;94987.88;;;2.36;57.86
74921;BME280;63483;47.384;8.860;2023-12-20T09:59:00;94985.72;;;2.41;57.78
74921;BME280;63483;47.384;8.860;2023-12-20T10:01:26;94998.41;;;2.44;57.32
74921;BME280;63483;47.384;8.860;2023-12-20T10:03:54;94990.66;;;2.44;57.46
74921;BME280;63483;47.384;8.860;2023-12-20T10:06:21;94994.91;;;2.45;57.74
74921;BME280;63483;47.384;8.860;2023-12-20T10:08:46;94989.47;;;2.48;57.37
74921;BME280;63483;47.384;8.860;2023-12-20T10:11:12;94988.53;;;2.49;57.31
74921;BME280;63483;47.384;8.860;2023-12-20T10:13:41;94988.44;;;2.51;57.21
74921;BME280;63483;47.384;8.860;2023-12-20T10:16:06;94984.31;;;2.48;57.59
74921;BME280;63483;47.384;8.860;2023-12-20T10:18:34;94991.00;;;2.51;57.55
74921;BME280;63483;47.384;8.860;2023-12-20T10:21:01;94979.94;;;2.48;57.49
74921;BME280;63483;47.384;8.860;2023-12-20T10:23:26;94982.41;;;2.50;57.54
74921;BME280;63483;47.384;8.860;2023-12-20T10:26:00;94977.28;;;2.39;58.03
74921;BME280;63483;47.384;8.860;2023-12-20T10:28:26;94968.56;;;2.51;57.57
74921;BME280;63483;47.384;8.860;2023-12-20T10:30:53;94973.47;;;2.54;57.43
74921;BME280;63483;47.384;8.860;2023-12-20T10:33:28;94964.66;;;2.57;57.21
74921;BME280;63483;47.384;8.860;2023-12-20T10:35:55;94953.25;;;2.59;57.38
74921;BME280;63483;47.384;8.860;2023-12-20T10:38:21;94959.84;;;2.52;57.62
74921;BME280;63483;47.384;8.860;2023-12-20T10:40:47;94956.78;;;2.58;57.48
74921;BME280;63483;47.384;8.860;2023-12-20T10:43:12;94951.25;;;2.52;57.65
74921;BME280;63483;47.384;8.860;2023-12-20T10:45:42;94958.66;;;2.56;57.76
74921;BME280;63483;47.384;8.860;2023-12-20T10:48:10;94947.50;;;2.56;57.50
74921;BME280;63483;47.384;8.860;2023-12-20T10:50:37;94945.13;;;2.64;57.53
74921;BME280;63483;47.384;8.860;2023-12-20T10:53:06;94940.09;;;2.51;57.83
74921;BME280;63483;47.384;8.860;2023-12-20T10:55:31;94931.97;;;2.56;57.99
74921;BME280;63483;47.384;8.860;2023-12-20T10:58:04;94923.41;;;2.55;57.64
74921;BME280;63483;47.384;8.860;2023-12-20T11:00:31;94926.00;;;2.55;57.77
74921;BME280;63483;47.384;8.860;2023-12-20T11:03:00;94934.91;;;2.62;58.01
74921;BME280;63483;47.384;8.860;2023-12-20T11:05:44;94929.66;;;1.86;54.26
74921;BME280;63483;47.384;8.860;2023-12-20T11:08:19;94927.75;;;1.20;52.47
74921;BME280;63483;47.384;8.860;2023-12-20T11:10:55;94925.38;;;0.70;53.55
74921;BME280;63483;47.384;8.860;2023-12-20T11:13:25;94924.56;;;0.34;53.63
74921;BME280;63483;47.384;8.860;2023-12-20T11:15:52;94927.03;;;0.36;56.09
74921;BME280;63483;47.384;8.860;2023-12-20T11:18:17;94915.72;;;0.26;55.50
74921;BME280;63483;47.384;8.860;2023-12-20T11:20:42;94928.97;;;0.08;53.39
74921;BME280;63483;47.384;8.860;2023-12-20T11:23:08;94923.19;;;0.04;54.89
74921;BME280;63483;47.384;8.860;2023-12-20T11:25:53;94918.81;;;-0.06;52.11
74921;BME280;63483;47.384;8.860;2023-12-20T11:28:23;94913.97;;;0.02;54.54
74921;BME280;63483;47.384;8.860;2023-12-20T11:30:54;94921.13;;;0.10;55.28
74921;BME280;63483;47.384;8.860;2023-12-20T11:33:36;94925.47;;;0.09;51.95
74921;BME280;63483;47.384;8.860;2023-12-20T11:36:02;94913.50;;;0.08;51.54
74921;BME280;63483;47.384;8.860;2023-12-20T11:38:35;94916.56;;;0.13;56.79
74921;BME280;63483;47.384;8.860;2023-12-20T11:41:01;94919.16;;;0.13;57.95
74921;BME280;63483;47.384;8.860;2023-12-20T11:43:35;94926.78;;;0.39;54.81
74921;BME280;63483;47.384;8.860;2023-12-20T11:46:04;94926.72;;;0.52;54.10
74921;BME280;63483;47.384;8.860;2023-12-20T11:48:31;94924.56;;;0.70;56.91
74921;BME280;63483;47.384;8.860;2023-12-20T11:50:57;94919.03;;;0.99;58.14
74921;BME280;63483;47.384;8.860;2023-12-20T11:53:22;94913.19;;;1.19;58.08
74921;BME280;63483;47.384;8.860;2023-12-20T11:55:49;94909.69;;;1.32;58.15
74921;BME280;63483;47.384;8.860;2023-12-20T11:58:14;94915.13;;;1.51;58.21
74921;BME280;63483;47.384;8.860;2023-12-20T12:00:41;94914.19;;;1.64;58.01
74921;BME280;63483;47.384;8.860;2023-12-20T12:03:08;94918.13;;;1.22;60.28
74921;BME280;63483;47.384;8.860;2023-12-20T12:05:33;94914.38;;;0.68;55.37
74921;BME280;63483;47.384;8.860;2023-12-20T12:07:58;94925.53;;;0.45;54.43
74921;BME280;63483;47.384;8.860;2023-12-20T12:10:24;94918.56;;;0.34;54.14
74921;BME280;63483;47.384;8.860;2023-12-20T12:12:49;94928.91;;;-0.03;53.90
74921;BME280;63483;47.384;8.860;2023-12-20T12:15:15;94919.53;;;-0.04;61.71
74921;BME280;63483;47.384;8.860;2023-12-20T12:17:40;94920.13;;;-0.01;56.83
74921;BME280;63483;47.384;8.860;2023-12-20T12:20:06;94917.44;;;0.01;54.03
74921;BME280;63483;47.384;8.860;2023-12-20T12:22:32;94913.88;;;-0.09;61.53
74921;BME280;63483;47.384;8.860;2023-12-20T12:24:59;94910.53;;;0.01;53.48
74921;BME280;63483;47.384;8.860;2023-12-20T12:27:34;94904.78;;;-0.02;56.21
74921;BME280;63483;47.384;8.860;2023-12-20T12:30:04;94903.59;;;0.15;55.36
74921;BME280;63483;47.384;8.860;2023-12-20T12:32:32;94900.13;;;0.03;61.63
74921;BME280;63483;47.384;8.860;2023-12-20T12:34:57;94900.84;;;0.29;55.01
74921;BME280;63483;47.384;8.860;2023-12-20T12:37:23;94908.69;;;0.28;51.89
74921;BME280;63483;47.384;8.860;2023-12-20T12:39:53;94910.78;;;0.23;53.22
74921;BME280;63483;47.384;8.860;2023-12-20T12:42:20;94921.94;;;0.10;58.57
74921;BME280;63483;47.384;8.860;2023-12-20T12:44:46;94918.63;;;0.45;59.84
74921;BME280;63483;47.384;8.860;2023-12-20T12:47:11;94929.19;;;0.89;58.08
74921;BME280;63483;47.384;8.860;2023-12-20T12:49:37;94920.19;;;0.95;58.00
74921;BME280;63483;47.384;8.860;2023-12-20T12:52:02;94926.22;;;1.40;55.94
74921;BME280;63483;47.384;8.860;2023-12-20T12:54:28;94923.16;;;1.24;56.71
74921;BME280;63483;47.384;8.860;2023-12-20T12:56:53;94917.28;;;1.11;56.49
74921;BME280;63483;47.384;8.860;2023-12-20T12:59:19;94931.50;;;1.16;56.71
74921;BME280;63483;47.384;8.860;2023-12-20T13:01:44;94936.59;;;0.94;57.58